Terminal Aerodrome Forecast
Issued by NWS

Home | Current Version | Previous Version | Graphics & Text | Print | Product List | Glossary On
Versions: 1 2 3 4 5 6 7 8 9 10 11 12 13 14 15 16 17 18 19 20 21 22
000
FTUS43 KICT 050427 AAB
TAFRSL
TAF AMD
KRSL 050427Z 0504/0524 02007KT P6SM VCSH SCT050 OVC100
      TEMPO 0505/0507 5SM TSRA OVC050CB
     FM050700 15010KT P6SM OVC080
     FM051500 17015G22KT P6SM SCT035 BKN100
     FM052200 17015G22KT P6SM VCTS SCT040CB BKN080=

USA.gov is the U.S. government's official web portal to all federal, state and local government web resources and services.